sensor_id;sensor_type;location;lat;lon;timestamp;P1;durP1;ratioP1;P2;durP2;ratioP2
45944;SDS011;31655;48.972;10.686;2023-04-25T00:01:29;6.55;;;4.30;;
45944;SDS011;31655;48.972;10.686;2023-04-25T00:03:55;7.32;;;4.28;;
45944;SDS011;31655;48.972;10.686;2023-04-25T00:06:22;5.75;;;4.15;;
45944;SDS011;31655;48.972;10.686;2023-04-25T00:08:51;7.60;;;5.03;;
45944;SDS011;31655;48.972;10.686;2023-04-25T00:11:18;6.80;;;4.40;;
45944;SDS011;31655;48.972;10.686;2023-04-25T00:13:44;4.93;;;4.05;;
45944;SDS011;31655;48.972;10.686;2023-04-25T00:16:11;6.65;;;4.03;;
45944;SDS011;31655;48.972;10.686;2023-04-25T00:18:39;7.82;;;4.35;;
45944;SDS011;31655;48.972;10.686;2023-04-25T00:21:05;5.85;;;4.18;;
45944;SDS011;31655;48.972;10.686;2023-04-25T00:23:31;8.43;;;4.53;;
45944;SDS011;31655;48.972;10.686;2023-04-25T00:25:57;8.60;;;4.43;;
45944;SDS011;31655;48.972;10.686;2023-04-25T00:28:28;6.75;;;3.85;;
45944;SDS011;31655;48.972;10.686;2023-04-25T00:30:55;8.73;;;4.60;;
45944;SDS011;31655;48.972;10.686;2023-04-25T00:33:21;11.00;;;4.90;;
45944;SDS011;31655;48.972;10.686;2023-04-25T00:35:48;7.18;;;4.65;;
45944;SDS011;31655;48.972;10.686;2023-04-25T00:38:30;8.80;;;5.70;;
45944;SDS011;31655;48.972;10.686;2023-04-25T00:41:25;6.35;;;4.50;;
45944;SDS011;31655;48.972;10.686;2023-04-25T00:43:55;6.68;;;4.60;;
45944;SDS011;31655;48.972;10.686;2023-04-25T00:46:40;7.43;;;4.97;;
45944;SDS011;31655;48.972;10.686;2023-04-25T00:49:07;7.28;;;4.47;;
45944;SDS011;31655;48.972;10.686;2023-04-25T00:51:52;5.70;;;4.30;;
45944;SDS011;31655;48.972;10.686;2023-04-25T00:57:46;7.38;;;4.22;;
45944;SDS011;31655;48.972;10.686;2023-04-25T01:03:50;7.55;;;4.70;;
45944;SDS011;31655;48.972;10.686;2023-04-25T01:06:37;7.22;;;4.45;;
45944;SDS011;31655;48.972;10.686;2023-04-25T01:09:11;8.43;;;5.25;;
45944;SDS011;31655;48.972;10.686;2023-04-25T01:11:38;7.10;;;4.53;;
45944;SDS011;31655;48.972;10.686;2023-04-25T01:14:09;7.25;;;5.00;;
45944;SDS011;31655;48.972;10.686;2023-04-25T01:16:34;7.25;;;4.68;;
45944;SDS011;31655;48.972;10.686;2023-04-25T01:19:19;4.97;;;4.05;;
45944;SDS011;31655;48.972;10.686;2023-04-25T01:21:45;6.70;;;4.60;;
45944;SDS011;31655;48.972;10.686;2023-04-25T01:24:11;6.43;;;4.53;;
45944;SDS011;31655;48.972;10.686;2023-04-25T01:26:37;5.07;;;4.20;;
45944;SDS011;31655;48.972;10.686;2023-04-25T01:29:05;7.50;;;4.53;;
45944;SDS011;31655;48.972;10.686;2023-04-25T01:31:32;4.35;;;3.72;;
45944;SDS011;31655;48.972;10.686;2023-04-25T01:33:58;5.80;;;4.15;;
45944;SDS011;31655;48.972;10.686;2023-04-25T01:36:24;6.50;;;3.92;;
45944;SDS011;31655;48.972;10.686;2023-04-25T01:38:51;7.47;;;4.45;;
45944;SDS011;31655;48.972;10.686;2023-04-25T01:41:18;5.80;;;3.95;;
45944;SDS011;31655;48.972;10.686;2023-04-25T01:43:44;6.15;;;4.03;;
45944;SDS011;31655;48.972;10.686;2023-04-25T01:46:11;5.70;;;4.40;;
45944;SDS011;31655;48.972;10.686;2023-04-25T01:48:37;5.40;;;3.70;;
45944;SDS011;31655;48.972;10.686;2023-04-25T01:51:03;8.15;;;4.05;;
45944;SDS011;31655;48.972;10.686;2023-04-25T01:53:29;7.32;;;5.00;;
45944;SDS011;31655;48.972;10.686;2023-04-25T01:55:55;4.68;;;3.50;;
45944;SDS011;31655;48.972;10.686;2023-04-25T01:58:21;4.57;;;3.35;;
45944;SDS011;31655;48.972;10.686;2023-04-25T02:00:47;6.90;;;3.55;;
45944;SDS011;31655;48.972;10.686;2023-04-25T02:03:13;5.63;;;3.58;;
45944;SDS011;31655;48.972;10.686;2023-04-25T02:05:39;6.88;;;4.38;;
45944;SDS011;31655;48.972;10.686;2023-04-25T02:08:05;7.20;;;4.60;;
45944;SDS011;31655;48.972;10.686;2023-04-25T02:10:32;5.78;;;4.55;;
45944;SDS011;31655;48.972;10.686;2023-04-25T02:12:58;7.18;;;4.45;;
45944;SDS011;31655;48.972;10.686;2023-04-25T02:15:24;8.60;;;3.92;;
45944;SDS011;31655;48.972;10.686;2023-04-25T02:17:50;6.10;;;3.95;;
45944;SDS011;31655;48.972;10.686;2023-04-25T02:20:22;5.68;;;3.83;;
45944;SDS011;31655;48.972;10.686;2023-04-25T02:22:48;4.70;;;3.22;;
45944;SDS011;31655;48.972;10.686;2023-04-25T02:25:14;5.75;;;3.50;;
45944;SDS011;31655;48.972;10.686;2023-04-25T02:27:49;4.97;;;3.20;;
45944;SDS011;31655;48.972;10.686;2023-04-25T02:30:16;8.57;;;4.07;;
45944;SDS011;31655;48.972;10.686;2023-04-25T02:32:42;5.18;;;3.13;;
45944;SDS011;31655;48.972;10.686;2023-04-25T02:35:08;8.95;;;4.60;;
45944;SDS011;31655;48.972;10.686;2023-04-25T02:37:34;7.43;;;4.82;;
45944;SDS011;31655;48.972;10.686;2023-04-25T02:40:01;6.82;;;4.20;;
45944;SDS011;31655;48.972;10.686;2023-04-25T02:42:28;6.13;;;3.97;;
45944;SDS011;31655;48.972;10.686;2023-04-25T02:44:54;5.63;;;3.85;;
45944;SDS011;31655;48.972;10.686;2023-04-25T02:47:20;13.90;;;4.75;;
45944;SDS011;31655;48.972;10.686;2023-04-25T02:50:05;6.45;;;3.90;;
45944;SDS011;31655;48.972;10.686;2023-04-25T02:52:43;5.80;;;4.05;;
45944;SDS011;31655;48.972;10.686;2023-04-25T02:55:11;8.52;;;4.53;;
45944;SDS011;31655;48.972;10.686;2023-04-25T02:57:38;7.07;;;3.83;;
45944;SDS011;31655;48.972;10.686;2023-04-25T03:00:04;7.88;;;3.97;;
45944;SDS011;31655;48.972;10.686;2023-04-25T03:02:30;9.10;;;6.40;;
45944;SDS011;31655;48.972;10.686;2023-04-25T03:04:56;10.13;;;4.68;;
45944;SDS011;31655;48.972;10.686;2023-04-25T03:07:23;8.50;;;4.10;;
45944;SDS011;31655;48.972;10.686;2023-04-25T03:09:48;5.57;;;4.18;;
45944;SDS011;31655;48.972;10.686;2023-04-25T03:12:15;7.55;;;4.57;;
45944;SDS011;31655;48.972;10.686;2023-04-25T03:14:41;8.65;;;5.22;;
45944;SDS011;31655;48.972;10.686;2023-04-25T03:17:07;9.02;;;4.57;;
45944;SDS011;31655;48.972;10.686;2023-04-25T03:19:32;7.70;;;4.72;;
45944;SDS011;31655;48.972;10.686;2023-04-25T03:21:58;6.88;;;4.93;;
45944;SDS011;31655;48.972;10.686;2023-04-25T03:24:24;6.35;;;3.75;;
45944;SDS011;31655;48.972;10.686;2023-04-25T03:26:52;12.38;;;5.13;;
45944;SDS011;31655;48.972;10.686;2023-04-25T03:29:18;9.57;;;4.45;;
45944;SDS011;31655;48.972;10.686;2023-04-25T03:31:43;6.78;;;4.35;;
45944;SDS011;31655;48.972;10.686;2023-04-25T03:34:10;4.43;;;3.65;;
45944;SDS011;31655;48.972;10.686;2023-04-25T03:36:36;8.88;;;4.18;;
45944;SDS011;31655;48.972;10.686;2023-04-25T03:39:02;6.72;;;4.57;;
45944;SDS011;31655;48.972;10.686;2023-04-25T03:41:28;6.63;;;5.53;;
45944;SDS011;31655;48.972;10.686;2023-04-25T03:43:54;11.43;;;5.60;;
45944;SDS011;31655;48.972;10.686;2023-04-25T03:46:20;9.90;;;5.65;;
45944;SDS011;31655;48.972;10.686;2023-04-25T03:48:47;10.50;;;5.82;;
45944;SDS011;31655;48.972;10.686;2023-04-25T03:51:13;9.57;;;6.28;;
45944;SDS011;31655;48.972;10.686;2023-04-25T03:53:39;7.72;;;5.90;;
45944;SDS011;31655;48.972;10.686;2023-04-25T03:56:05;11.55;;;5.50;;
45944;SDS011;31655;48.972;10.686;2023-04-25T03:58:31;11.13;;;7.00;;
45944;SDS011;31655;48.972;10.686;2023-04-25T04:00:57;5.35;;;4.18;;
45944;SDS011;31655;48.972;10.686;2023-04-25T04:03:23;6.65;;;5.05;;
45944;SDS011;31655;48.972;10.686;2023-04-25T04:05:49;7.47;;;4.35;;
45944;SDS011;31655;48.972;10.686;2023-04-25T04:08:15;8.13;;;4.72;;
45944;SDS011;31655;48.972;10.686;2023-04-25T04:10:41;10.93;;;5.97;;
45944;SDS011;31655;48.972;10.686;2023-04-25T04:13:07;7.82;;;4.82;;
45944;SDS011;31655;48.972;10.686;2023-04-25T04:15:33;5.93;;;4.65;;
45944;SDS011;31655;48.972;10.686;2023-04-25T04:17:59;7.65;;;5.47;;
45944;SDS011;31655;48.972;10.686;2023-04-25T04:20:27;7.50;;;4.88;;
45944;SDS011;31655;48.972;10.686;2023-04-25T04:22:54;4.95;;;4.05;;
45944;SDS011;31655;48.972;10.686;2023-04-25T04:25:20;7.25;;;4.22;;
45944;SDS011;31655;48.972;10.686;2023-04-25T04:27:46;7.10;;;4.15;;
45944;SDS011;31655;48.972;10.686;2023-04-25T04:30:12;7.18;;;3.65;;
45944;SDS011;31655;48.972;10.686;2023-04-25T04:32:38;8.30;;;4.50;;
45944;SDS011;31655;48.972;10.686;2023-04-25T04:35:04;7.88;;;3.40;;
45944;SDS011;31655;48.972;10.686;2023-04-25T04:37:31;11.30;;;4.00;;
45944;SDS011;31655;48.972;10.686;2023-04-25T04:39:58;6.47;;;4.03;;
45944;SDS011;31655;48.972;10.686;2023-04-25T04:42:24;19.40;;;4.30;;
45944;SDS011;31655;48.972;10.686;2023-04-25T04:44:50;7.20;;;4.13;;
45944;SDS011;31655;48.972;10.686;2023-04-25T04:47:17;5.88;;;4.15;;
45944;SDS011;31655;48.972;10.686;2023-04-25T04:49:45;5.15;;;3.67;;
45944;SDS011;31655;48.972;10.686;2023-04-25T04:52:11;9.02;;;4.10;;
45944;SDS011;31655;48.972;10.686;2023-04-25T04:54:37;4.55;;;3.60;;
45944;SDS011;31655;48.972;10.686;2023-04-25T04:57:03;7.13;;;3.70;;
45944;SDS011;31655;48.972;10.686;2023-04-25T04:59:29;6.10;;;3.83;;
45944;SDS011;31655;48.972;10.686;2023-04-25T05:01:55;4.82;;;3.63;;
45944;SDS011;31655;48.972;10.686;2023-04-25T05:04:20;9.18;;;3.70;;
45944;SDS011;31655;48.972;10.686;2023-04-25T05:06:46;10.57;;;3.72;;
45944;SDS011;31655;48.972;10.686;2023-04-25T05:09:12;7.40;;;3.83;;
45944;SDS011;31655;48.972;10.686;2023-04-25T05:11:38;6.70;;;4.53;;
45944;SDS011;31655;48.972;10.686;2023-04-25T05:14:04;6.65;;;4.40;;
45944;SDS011;31655;48.972;10.686;2023-04-25T05:16:30;9.05;;;3.97;;
45944;SDS011;31655;48.972;10.686;2023-04-25T05:18:56;5.40;;;4.20;;
45944;SDS011;31655;48.972;10.686;2023-04-25T05:21:22;9.02;;;4.78;;
45944;SDS011;31655;48.972;10.686;2023-04-25T05:23:48;8.38;;;5.22;;
45944;SDS011;31655;48.972;10.686;2023-04-25T05:26:14;8.52;;;4.50;;
45944;SDS011;31655;48.972;10.686;2023-04-25T05:28:40;7.32;;;4.57;;
45944;SDS011;31655;48.972;10.686;2023-04-25T05:31:06;7.63;;;4.18;;
45944;SDS011;31655;48.972;10.686;2023-04-25T05:33:34;7.28;;;4.07;;
45944;SDS011;31655;48.972;10.686;2023-04-25T05:36:00;8.02;;;5.20;;
45944;SDS011;31655;48.972;10.686;2023-04-25T05:38:25;11.45;;;5.03;;
45944;SDS011;31655;48.972;10.686;2023-04-25T05:40:51;10.48;;;4.78;;
45944;SDS011;31655;48.972;10.686;2023-04-25T05:43:17;6.82;;;4.78;;
45944;SDS011;31655;48.972;10.686;2023-04-25T05:45:43;7.28;;;4.18;;
45944;SDS011;31655;48.972;10.686;2023-04-25T05:48:08;10.15;;;4.75;;
45944;SDS011;31655;48.972;10.686;2023-04-25T05:50:34;5.80;;;4.13;;
45944;SDS011;31655;48.972;10.686;2023-04-25T05:53:00;9.57;;;4.35;;
45944;SDS011;31655;48.972;10.686;2023-04-25T05:55:26;5.35;;;4.00;;
45944;SDS011;31655;48.972;10.686;2023-04-25T05:57:52;5.90;;;4.32;;
45944;SDS011;31655;48.972;10.686;2023-04-25T06:00:18;8.85;;;4.80;;
45944;SDS011;31655;48.972;10.686;2023-04-25T06:02:43;6.78;;;4.93;;
45944;SDS011;31655;48.972;10.686;2023-04-25T06:05:10;11.73;;;4.78;;
45944;SDS011;31655;48.972;10.686;2023-04-25T06:07:35;5.68;;;4.32;;
45944;SDS011;31655;48.972;10.686;2023-04-25T06:10:01;10.30;;;4.82;;
45944;SDS011;31655;48.972;10.686;2023-04-25T06:12:31;7.18;;;4.63;;
45944;SDS011;31655;48.972;10.686;2023-04-25T06:14:57;8.38;;;6.38;;
45944;SDS011;31655;48.972;10.686;2023-04-25T06:17:23;7.82;;;4.57;;
45944;SDS011;31655;48.972;10.686;2023-04-25T06:19:49;6.78;;;4.35;;
45944;SDS011;31655;48.972;10.686;2023-04-25T06:22:14;8.30;;;5.35;;
45944;SDS011;31655;48.972;10.686;2023-04-25T06:24:40;6.30;;;4.47;;
45944;SDS011;31655;48.972;10.686;2023-04-25T06:27:06;8.80;;;5.55;;
45944;SDS011;31655;48.972;10.686;2023-04-25T06:29:32;7.22;;;4.88;;
45944;SDS011;31655;48.972;10.686;2023-04-25T06:31:58;8.40;;;5.55;;
45944;SDS011;31655;48.972;10.686;2023-04-25T06:34:24;10.15;;;4.93;;
45944;SDS011;31655;48.972;10.686;2023-04-25T06:36:50;7.07;;;4.68;;
45944;SDS011;31655;48.972;10.686;2023-04-25T06:39:16;5.20;;;4.15;;
45944;SDS011;31655;48.972;10.686;2023-04-25T06:41:42;6.55;;;4.50;;
45944;SDS011;31655;48.972;10.686;2023-04-25T06:44:08;7.35;;;3.72;;
45944;SDS011;31655;48.972;10.686;2023-04-25T06:46:34;6.18;;;3.97;;
45944;SDS011;31655;48.972;10.686;2023-04-25T06:49:01;5.97;;;4.55;;
45944;SDS011;31655;48.972;10.686;2023-04-25T06:51:26;4.70;;;3.78;;
45944;SDS011;31655;48.972;10.686;2023-04-25T06:53:54;7.60;;;4.80;;
45944;SDS011;31655;48.972;10.686;2023-04-25T06:56:20;10.07;;;5.22;;
45944;SDS011;31655;48.972;10.686;2023-04-25T06:58:46;6.63;;;4.28;;
45944;SDS011;31655;48.972;10.686;2023-04-25T07:01:12;5.80;;;4.05;;
45944;SDS011;31655;48.972;10.686;2023-04-25T07:03:38;7.95;;;4.93;;
45944;SDS011;31655;48.972;10.686;2023-04-25T07:06:03;7.05;;;4.65;;
45944;SDS011;31655;48.972;10.686;2023-04-25T07:08:29;7.88;;;5.40;;
45944;SDS011;31655;48.972;10.686;2023-04-25T07:10:55;6.20;;;4.50;;
45944;SDS011;31655;48.972;10.686;2023-04-25T07:13:21;6.95;;;4.25;;
45944;SDS011;31655;48.972;10.686;2023-04-25T07:15:47;6.28;;;5.10;;
45944;SDS011;31655;48.972;10.686;2023-04-25T07:18:13;5.95;;;3.92;;
45944;SDS011;31655;48.972;10.686;2023-04-25T07:20:39;12.50;;;4.63;;
45944;SDS011;31655;48.972;10.686;2023-04-25T07:23:05;5.63;;;4.70;;
45944;SDS011;31655;48.972;10.686;2023-04-25T07:25:31;6.00;;;4.05;;
45944;SDS011;31655;48.972;10.686;2023-04-25T07:27:57;6.70;;;4.28;;
45944;SDS011;31655;48.972;10.686;2023-04-25T07:30:22;5.88;;;4.10;;
45944;SDS011;31655;48.972;10.686;2023-04-25T07:32:49;5.03;;;3.80;;
45944;SDS011;31655;48.972;10.686;2023-04-25T07:35:15;8.20;;;4.22;;
45944;SDS011;31655;48.972;10.686;2023-04-25T07:37:42;6.28;;;4.15;;
45944;SDS011;31655;48.972;10.686;2023-04-25T07:40:08;5.95;;;4.25;;
45944;SDS011;31655;48.972;10.686;2023-04-25T07:42:34;6.57;;;4.32;;
45944;SDS011;31655;48.972;10.686;2023-04-25T07:45:00;5.68;;;4.20;;
45944;SDS011;31655;48.972;10.686;2023-04-25T07:47:26;5.78;;;4.13;;
45944;SDS011;31655;48.972;10.686;2023-04-25T07:49:52;5.30;;;3.58;;
45944;SDS011;31655;48.972;10.686;2023-04-25T07:52:18;4.47;;;3.63;;
45944;SDS011;31655;48.972;10.686;2023-04-25T07:58:05;3.90;;;3.13;;
45944;SDS011;31655;48.972;10.686;2023-04-25T08:00:36;3.90;;;3.15;;
45944;SDS011;31655;48.972;10.686;2023-04-25T08:03:01;4.10;;;2.67;;
45944;SDS011;31655;48.972;10.686;2023-04-25T08:05:27;4.15;;;3.13;;
45944;SDS011;31655;48.972;10.686;2023-04-25T08:07:53;2.90;;;2.42;;
45944;SDS011;31655;48.972;10.686;2023-04-25T08:10:19;5.03;;;3.38;;
45944;SDS011;31655;48.972;10.686;2023-04-25T08:12:45;6.85;;;3.40;;
45944;SDS011;31655;48.972;10.686;2023-04-25T08:15:11;4.88;;;3.30;;
45944;SDS011;31655;48.972;10.686;2023-04-25T08:17:38;2.97;;;2.60;;
45944;SDS011;31655;48.972;10.686;2023-04-25T08:20:04;3.53;;;2.55;;
45944;SDS011;31655;48.972;10.686;2023-04-25T08:22:31;4.93;;;3.30;;
45944;SDS011;31655;48.972;10.686;2023-04-25T08:24:56;4.78;;;2.40;;
45944;SDS011;31655;48.972;10.686;2023-04-25T08:27:22;4.65;;;2.83;;
45944;SDS011;31655;48.972;10.686;2023-04-25T08:29:48;2.88;;;2.15;;
45944;SDS011;31655;48.972;10.686;2023-04-25T08:32:14;3.83;;;2.42;;
45944;SDS011;31655;48.972;10.686;2023-04-25T08:34:40;3.20;;;2.53;;
45944;SDS011;31655;48.972;10.686;2023-04-25T08:37:07;2.55;;;2.35;;
45944;SDS011;31655;48.972;10.686;2023-04-25T08:39:34;2.83;;;2.53;;
45944;SDS011;31655;48.972;10.686;2023-04-25T08:42:00;5.82;;;2.53;;
45944;SDS011;31655;48.972;10.686;2023-04-25T08:44:31;5.22;;;2.70;;
45944;SDS011;31655;48.972;10.686;2023-04-25T08:46:58;13.18;;;2.80;;
45944;SDS011;31655;48.972;10.686;2023-04-25T08:49:24;3.35;;;2.50;;
45944;SDS011;31655;48.972;10.686;2023-04-25T14:29:26;5.20;;;3.72;;
45944;SDS011;31655;48.972;10.686;2023-04-25T14:31:52;6.15;;;2.85;;
45944;SDS011;31655;48.972;10.686;2023-04-25T14:34:19;6.72;;;2.92;;
45944;SDS011;31655;48.972;10.686;2023-04-25T14:36:45;4.38;;;2.47;;
45944;SDS011;31655;48.972;10.686;2023-04-25T14:39:10;7.45;;;2.75;;
45944;SDS011;31655;48.972;10.686;2023-04-25T14:41:38;5.60;;;3.10;;
45944;SDS011;31655;48.972;10.686;2023-04-25T14:44:04;8.38;;;2.88;;
45944;SDS011;31655;48.972;10.686;2023-04-25T14:46:30;5.63;;;2.88;;
45944;SDS011;31655;48.972;10.686;2023-04-25T14:48:56;7.28;;;3.95;;
45944;SDS011;31655;48.972;10.686;2023-04-25T14:51:22;4.90;;;2.72;;
45944;SDS011;31655;48.972;10.686;2023-04-25T14:53:48;5.20;;;3.15;;
45944;SDS011;31655;48.972;10.686;2023-04-25T14:56:15;4.63;;;3.10;;
45944;SDS011;31655;48.972;10.686;2023-04-25T14:58:40;4.35;;;2.55;;
45944;SDS011;31655;48.972;10.686;2023-04-25T15:01:06;5.68;;;2.95;;
45944;SDS011;31655;48.972;10.686;2023-04-25T15:03:32;4.90;;;3.17;;
45944;SDS011;31655;48.972;10.686;2023-04-25T15:05:57;4.53;;;2.85;;
45944;SDS011;31655;48.972;10.686;2023-04-25T15:08:23;6.45;;;2.80;;
45944;SDS011;31655;48.972;10.686;2023-04-25T15:10:49;4.70;;;3.65;;
45944;SDS011;31655;48.972;10.686;2023-04-25T15:13:15;8.57;;;3.97;;
45944;SDS011;31655;48.972;10.686;2023-04-25T15:15:41;7.40;;;4.28;;
45944;SDS011;31655;48.972;10.686;2023-04-25T15:18:07;7.22;;;3.58;;
45944;SDS011;31655;48.972;10.686;2023-04-25T15:20:33;9.38;;;4.38;;
45944;SDS011;31655;48.972;10.686;2023-04-25T15:22:59;4.95;;;3.97;;
45944;SDS011;31655;48.972;10.686;2023-04-25T15:25:28;5.80;;;4.35;;
45944;SDS011;31655;48.972;10.686;2023-04-25T15:27:53;6.93;;;4.43;;
45944;SDS011;31655;48.972;10.686;2023-04-25T15:30:19;8.82;;;4.63;;
45944;SDS011;31655;48.972;10.686;2023-04-25T15:32:46;8.43;;;4.18;;
45944;SDS011;31655;48.972;10.686;2023-04-25T15:35:12;6.20;;;3.90;;
45944;SDS011;31655;48.972;10.686;2023-04-25T15:37:38;6.25;;;3.83;;
45944;SDS011;31655;48.972;10.686;2023-04-25T15:40:13;8.63;;;5.10;;
45944;SDS011;31655;48.972;10.686;2023-04-25T15:42:44;6.50;;;3.72;;
45944;SDS011;31655;48.972;10.686;2023-04-25T15:45:17;8.20;;;4.82;;
45944;SDS011;31655;48.972;10.686;2023-04-25T15:47:44;5.82;;;4.45;;
45944;SDS011;31655;48.972;10.686;2023-04-25T15:50:10;11.13;;;4.82;;
45944;SDS011;31655;48.972;10.686;2023-04-25T15:52:36;9.73;;;4.95;;
45944;SDS011;31655;48.972;10.686;2023-04-25T15:55:03;10.35;;;5.38;;
45944;SDS011;31655;48.972;10.686;2023-04-25T15:57:31;8.32;;;4.60;;
45944;SDS011;31655;48.972;10.686;2023-04-25T15:59:58;9.52;;;4.53;;
45944;SDS011;31655;48.972;10.686;2023-04-25T16:02:24;8.80;;;5.05;;
45944;SDS011;31655;48.972;10.686;2023-04-25T16:04:50;8.90;;;4.82;;
45944;SDS011;31655;48.972;10.686;2023-04-25T16:07:17;8.23;;;4.25;;
45944;SDS011;31655;48.972;10.686;2023-04-25T16:09:43;6.25;;;4.57;;
45944;SDS011;31655;48.972;10.686;2023-04-25T16:12:09;6.40;;;3.97;;
45944;SDS011;31655;48.972;10.686;2023-04-25T16:14:35;7.18;;;4.45;;
45944;SDS011;31655;48.972;10.686;2023-04-25T16:17:01;8.43;;;4.60;;
45944;SDS011;31655;48.972;10.686;2023-04-25T16:19:27;6.63;;;4.38;;
45944;SDS011;31655;48.972;10.686;2023-04-25T16:21:53;8.25;;;4.70;;
45944;SDS011;31655;48.972;10.686;2023-04-25T16:24:19;13.38;;;5.22;;
45944;SDS011;31655;48.972;10.686;2023-04-25T16:26:44;10.45;;;4.82;;
45944;SDS011;31655;48.972;10.686;2023-04-25T16:29:10;10.05;;;5.07;;
45944;SDS011;31655;48.972;10.686;2023-04-25T16:31:38;6.35;;;4.47;;
45944;SDS011;31655;48.972;10.686;2023-04-25T16:34:04;6.00;;;3.85;;
45944;SDS011;31655;48.972;10.686;2023-04-25T16:36:30;9.25;;;4.68;;
45944;SDS011;31655;48.972;10.686;2023-04-25T16:38:58;6.78;;;4.50;;
45944;SDS011;31655;48.972;10.686;2023-04-25T16:41:25;9.60;;;6.07;;
45944;SDS011;31655;48.972;10.686;2023-04-25T16:43:51;12.35;;;4.88;;
45944;SDS011;31655;48.972;10.686;2023-04-25T16:46:17;8.45;;;5.13;;
45944;SDS011;31655;48.972;10.686;2023-04-25T16:48:43;9.00;;;4.97;;
45944;SDS011;31655;48.972;10.686;2023-04-25T16:51:10;13.20;;;5.70;;
45944;SDS011;31655;48.972;10.686;2023-04-25T16:53:35;6.70;;;4.43;;
45944;SDS011;31655;48.972;10.686;2023-04-25T16:56:01;8.35;;;4.80;;
45944;SDS011;31655;48.972;10.686;2023-04-25T16:58:28;10.02;;;5.38;;
45944;SDS011;31655;48.972;10.686;2023-04-25T17:00:53;9.80;;;7.20;;
45944;SDS011;31655;48.972;10.686;2023-04-25T17:03:20;6.88;;;4.93;;
45944;SDS011;31655;48.972;10.686;2023-04-25T17:05:47;9.18;;;4.65;;
45944;SDS011;31655;48.972;10.686;2023-04-25T17:08:15;10.77;;;5.15;;
45944;SDS011;31655;48.972;10.686;2023-04-25T17:10:40;9.73;;;5.22;;
45944;SDS011;31655;48.972;10.686;2023-04-25T17:13:06;7.60;;;4.35;;
45944;SDS011;31655;48.972;10.686;2023-04-25T17:15:32;8.02;;;5.10;;
45944;SDS011;31655;48.972;10.686;2023-04-25T17:17:58;9.88;;;4.65;;
45944;SDS011;31655;48.972;10.686;2023-04-25T17:20:24;7.95;;;4.40;;
45944;SDS011;31655;48.972;10.686;2023-04-25T17:22:52;9.93;;;5.15;;
45944;SDS011;31655;48.972;10.686;2023-04-25T17:25:18;11.50;;;5.88;;
45944;SDS011;31655;48.972;10.686;2023-04-25T17:27:44;12.35;;;6.88;;
45944;SDS011;31655;48.972;10.686;2023-04-25T17:30:10;15.30;;;8.23;;
45944;SDS011;31655;48.972;10.686;2023-04-25T17:32:36;16.23;;;8.68;;
45944;SDS011;31655;48.972;10.686;2023-04-25T17:35:02;12.98;;;6.47;;
45944;SDS011;31655;48.972;10.686;2023-04-25T17:37:28;8.88;;;5.55;;
45944;SDS011;31655;48.972;10.686;2023-04-25T17:39:54;11.25;;;6.88;;
45944;SDS011;31655;48.972;10.686;2023-04-25T17:42:20;13.45;;;7.43;;
45944;SDS011;31655;48.972;10.686;2023-04-25T17:44:46;11.02;;;5.78;;
45944;SDS011;31655;48.972;10.686;2023-04-25T17:47:11;10.15;;;4.93;;
45944;SDS011;31655;48.972;10.686;2023-04-25T17:49:37;8.88;;;5.63;;
45944;SDS011;31655;48.972;10.686;2023-04-25T17:52:04;11.50;;;6.05;;
45944;SDS011;31655;48.972;10.686;2023-04-25T17:54:30;7.20;;;5.20;;
45944;SDS011;31655;48.972;10.686;2023-04-25T17:56:56;11.57;;;6.60;;
45944;SDS011;31655;48.972;10.686;2023-04-25T17:59:22;9.35;;;5.22;;
45944;SDS011;31655;48.972;10.686;2023-04-25T18:01:47;11.68;;;5.78;;
45944;SDS011;31655;48.972;10.686;2023-04-25T18:04:13;12.68;;;6.05;;
45944;SDS011;31655;48.972;10.686;2023-04-25T18:06:39;10.40;;;4.78;;
45944;SDS011;31655;48.972;10.686;2023-04-25T18:09:05;13.73;;;7.63;;
45944;SDS011;31655;48.972;10.686;2023-04-25T18:11:41;15.75;;;7.00;;
45944;SDS011;31655;48.972;10.686;2023-04-25T18:14:07;10.45;;;5.35;;
45944;SDS011;31655;48.972;10.686;2023-04-25T18:16:38;9.88;;;5.05;;
45944;SDS011;31655;48.972;10.686;2023-04-25T18:19:08;9.25;;;4.65;;
45944;SDS011;31655;48.972;10.686;2023-04-25T18:21:42;9.50;;;4.97;;
45944;SDS011;31655;48.972;10.686;2023-04-25T18:24:09;9.88;;;5.15;;
45944;SDS011;31655;48.972;10.686;2023-04-25T18:26:37;7.88;;;4.78;;
45944;SDS011;31655;48.972;10.686;2023-04-25T18:29:03;7.82;;;5.15;;
45944;SDS011;31655;48.972;10.686;2023-04-25T18:31:29;6.93;;;4.90;;
45944;SDS011;31655;48.972;10.686;2023-04-25T18:33:56;7.05;;;4.85;;
45944;SDS011;31655;48.972;10.686;2023-04-25T18:36:22;10.75;;;5.18;;
45944;SDS011;31655;48.972;10.686;2023-04-25T18:38:48;10.45;;;5.57;;
45944;SDS011;31655;48.972;10.686;2023-04-25T18:41:19;8.88;;;6.03;;
45944;SDS011;31655;48.972;10.686;2023-04-25T18:43:45;10.80;;;6.32;;
45944;SDS011;31655;48.972;10.686;2023-04-25T18:46:11;11.00;;;6.53;;
45944;SDS011;31655;48.972;10.686;2023-04-25T18:48:37;11.05;;;7.35;;
45944;SDS011;31655;48.972;10.686;2023-04-25T18:51:02;12.35;;;6.38;;
45944;SDS011;31655;48.972;10.686;2023-04-25T18:53:29;11.70;;;6.03;;
45944;SDS011;31655;48.972;10.686;2023-04-25T18:55:55;12.45;;;6.18;;
45944;SDS011;31655;48.972;10.686;2023-04-25T18:58:21;11.93;;;6.03;;
45944;SDS011;31655;48.972;10.686;2023-04-25T19:00:46;8.30;;;5.60;;
45944;SDS011;31655;48.972;10.686;2023-04-25T19:03:13;11.52;;;6.53;;
45944;SDS011;31655;48.972;10.686;2023-04-25T19:05:38;11.30;;;6.32;;
45944;SDS011;31655;48.972;10.686;2023-04-25T19:08:04;15.50;;;6.10;;
45944;SDS011;31655;48.972;10.686;2023-04-25T19:10:30;14.45;;;8.90;;
45944;SDS011;31655;48.972;10.686;2023-04-25T19:12:56;13.63;;;8.02;;
45944;SDS011;31655;48.972;10.686;2023-04-25T19:15:22;8.98;;;5.72;;
45944;SDS011;31655;48.972;10.686;2023-04-25T19:17:47;15.20;;;7.13;;
45944;SDS011;31655;48.972;10.686;2023-04-25T19:20:13;9.98;;;6.35;;
45944;SDS011;31655;48.972;10.686;2023-04-25T19:22:40;10.50;;;6.60;;
45944;SDS011;31655;48.972;10.686;2023-04-25T19:25:05;11.02;;;5.97;;
45944;SDS011;31655;48.972;10.686;2023-04-25T19:27:31;9.02;;;5.70;;
45944;SDS011;31655;48.972;10.686;2023-04-25T19:29:57;11.93;;;5.20;;
45944;SDS011;31655;48.972;10.686;2023-04-25T19:32:31;11.52;;;6.35;;
45944;SDS011;31655;48.972;10.686;2023-04-25T19:34:58;13.07;;;7.43;;
45944;SDS011;31655;48.972;10.686;2023-04-25T19:37:24;14.15;;;7.07;;
45944;SDS011;31655;48.972;10.686;2023-04-25T19:39:50;15.40;;;8.38;;
45944;SDS011;31655;48.972;10.686;2023-04-25T19:42:16;11.55;;;6.75;;
45944;SDS011;31655;48.972;10.686;2023-04-25T19:44:43;14.65;;;7.78;;
45944;SDS011;31655;48.972;10.686;2023-04-25T19:47:09;12.10;;;7.20;;
45944;SDS011;31655;48.972;10.686;2023-04-25T19:49:38;10.80;;;7.00;;
45944;SDS011;31655;48.972;10.686;2023-04-25T19:52:04;10.18;;;6.65;;
45944;SDS011;31655;48.972;10.686;2023-04-25T19:54:31;16.02;;;8.90;;
45944;SDS011;31655;48.972;10.686;2023-04-25T19:56:58;11.85;;;7.00;;
45944;SDS011;31655;48.972;10.686;2023-04-25T19:59:24;11.18;;;6.70;;
45944;SDS011;31655;48.972;10.686;2023-04-25T20:01:50;15.98;;;9.05;;
45944;SDS011;31655;48.972;10.686;2023-04-25T20:04:16;13.50;;;8.20;;
45944;SDS011;31655;48.972;10.686;2023-04-25T20:06:42;19.33;;;10.13;;
45944;SDS011;31655;48.972;10.686;2023-04-25T20:09:08;16.48;;;10.43;;
45944;SDS011;31655;48.972;10.686;2023-04-25T20:11:35;20.75;;;10.60;;
45944;SDS011;31655;48.972;10.686;2023-04-25T20:14:01;20.85;;;11.02;;
45944;SDS011;31655;48.972;10.686;2023-04-25T20:16:29;14.80;;;9.00;;